sensor_id;sensor_type;location;lat;lon;timestamp;temperature;humidity
71668;DHT22;59504;54.806;9.640;2023-04-03T00:00:44;0.00;66.20
71668;DHT22;59504;54.806;9.640;2023-04-03T00:03:05;0.00;66.40
71668;DHT22;59504;54.806;9.640;2023-04-03T00:05:26;0.00;66.40
71668;DHT22;59504;54.806;9.640;2023-04-03T00:07:46;0.00;66.40
71668;DHT22;59504;54.806;9.640;2023-04-03T00:10:08;0.00;66.40
71668;DHT22;59504;54.806;9.640;2023-04-03T00:12:28;0.00;66.30
71668;DHT22;59504;54.806;9.640;2023-04-03T00:14:49;-0.10;66.30
71668;DHT22;59504;54.806;9.640;2023-04-03T00:17:10;-0.10;66.40
71668;DHT22;59504;54.806;9.640;2023-04-03T00:19:31;-0.10;66.40
71668;DHT22;59504;54.806;9.640;2023-04-03T00:21:48;-0.10;66.50
71668;DHT22;59504;54.806;9.640;2023-04-03T00:24:09;-0.10;66.90
71668;DHT22;59504;54.806;9.640;2023-04-03T00:26:30;-0.20;66.90
71668;DHT22;59504;54.806;9.640;2023-04-03T00:28:41;-0.20;67.00
71668;DHT22;59504;54.806;9.640;2023-04-03T00:31:02;-0.20;67.10
71668;DHT22;59504;54.806;9.640;2023-04-03T00:33:22;-0.20;67.20
71668;DHT22;59504;54.806;9.640;2023-04-03T00:35:44;-0.30;67.30
71668;DHT22;59504;54.806;9.640;2023-04-03T00:38:09;-0.30;67.50
71668;DHT22;59504;54.806;9.640;2023-04-03T00:40:37;-0.30;67.40
71668;DHT22;59504;54.806;9.640;2023-04-03T00:42:59;-0.30;67.50
71668;DHT22;59504;54.806;9.640;2023-04-03T00:45:24;-0.30;67.50
71668;DHT22;59504;54.806;9.640;2023-04-03T00:47:45;-0.30;67.50
71668;DHT22;59504;54.806;9.640;2023-04-03T00:50:07;-0.40;67.50
71668;DHT22;59504;54.806;9.640;2023-04-03T00:52:11;-0.40;67.60
71668;DHT22;59504;54.806;9.640;2023-04-03T00:54:17;-0.40;67.60
71668;DHT22;59504;54.806;9.640;2023-04-03T00:56:38;-0.40;67.70
71668;DHT22;59504;54.806;9.640;2023-04-03T00:59:04;-0.40;67.90
71668;DHT22;59504;54.806;9.640;2023-04-03T01:01:26;-0.40;67.90
71668;DHT22;59504;54.806;9.640;2023-04-03T01:03:48;-0.40;68.00
71668;DHT22;59504;54.806;9.640;2023-04-03T01:06:08;-0.50;68.00
71668;DHT22;59504;54.806;9.640;2023-04-03T01:08:30;-0.50;67.90
71668;DHT22;59504;54.806;9.640;2023-04-03T01:10:51;-0.50;67.90
71668;DHT22;59504;54.806;9.640;2023-04-03T01:12:51;-0.50;68.00
71668;DHT22;59504;54.806;9.640;2023-04-03T01:14:55;-0.50;68.00
71668;DHT22;59504;54.806;9.640;2023-04-03T01:17:20;-0.50;68.00
71668;DHT22;59504;54.806;9.640;2023-04-03T01:19:55;-0.50;68.20
71668;DHT22;59504;54.806;9.640;2023-04-03T01:22:29;-0.60;68.20
71668;DHT22;59504;54.806;9.640;2023-04-03T01:24:52;-0.60;68.20
71668;DHT22;59504;54.806;9.640;2023-04-03T01:27:13;-0.60;68.30
71668;DHT22;59504;54.806;9.640;2023-04-03T01:29:34;-0.60;68.40
71668;DHT22;59504;54.806;9.640;2023-04-03T01:32:00;-0.60;68.50
71668;DHT22;59504;54.806;9.640;2023-04-03T01:34:21;-0.60;68.50
71668;DHT22;59504;54.806;9.640;2023-04-03T01:36:42;-0.60;68.50
71668;DHT22;59504;54.806;9.640;2023-04-03T01:39:03;-0.70;68.30
71668;DHT22;59504;54.806;9.640;2023-04-03T01:41:05;-0.70;68.30
71668;DHT22;59504;54.806;9.640;2023-04-03T01:43:18;-0.70;68.30
71668;DHT22;59504;54.806;9.640;2023-04-03T01:45:39;-0.70;68.50
71668;DHT22;59504;54.806;9.640;2023-04-03T01:48:00;-0.70;68.60
71668;DHT22;59504;54.806;9.640;2023-04-03T01:50:05;-0.70;68.70
71668;DHT22;59504;54.806;9.640;2023-04-03T01:52:26;-0.70;68.70
71668;DHT22;59504;54.806;9.640;2023-04-03T01:54:46;-0.70;68.80
71668;DHT22;59504;54.806;9.640;2023-04-03T01:57:07;-0.80;68.90
71668;DHT22;59504;54.806;9.640;2023-04-03T01:59:28;-0.80;68.90
71668;DHT22;59504;54.806;9.640;2023-04-03T02:01:48;-0.80;68.90
71668;DHT22;59504;54.806;9.640;2023-04-03T02:04:09;-0.80;69.00
71668;DHT22;59504;54.806;9.640;2023-04-03T02:06:30;-0.80;69.10
71668;DHT22;59504;54.806;9.640;2023-04-03T02:08:50;-0.80;69.10
71668;DHT22;59504;54.806;9.640;2023-04-03T02:11:11;-0.80;69.10
71668;DHT22;59504;54.806;9.640;2023-04-03T02:13:31;-0.80;69.00
71668;DHT22;59504;54.806;9.640;2023-04-03T02:15:52;-0.80;69.10
71668;DHT22;59504;54.806;9.640;2023-04-03T02:17:53;-0.80;69.20
71668;DHT22;59504;54.806;9.640;2023-04-03T02:19:57;-0.80;69.20
71668;DHT22;59504;54.806;9.640;2023-04-03T02:22:11;-0.90;69.30
71668;DHT22;59504;54.806;9.640;2023-04-03T02:24:32;-0.80;69.30
71668;DHT22;59504;54.806;9.640;2023-04-03T02:26:53;-0.80;69.30
71668;DHT22;59504;54.806;9.640;2023-04-03T02:29:13;-0.90;69.10
71668;DHT22;59504;54.806;9.640;2023-04-03T02:31:34;-0.90;69.10
71668;DHT22;59504;54.806;9.640;2023-04-03T02:33:55;-0.90;69.30
71668;DHT22;59504;54.806;9.640;2023-04-03T02:36:16;-0.90;69.60
71668;DHT22;59504;54.806;9.640;2023-04-03T02:38:36;-0.90;70.10
71668;DHT22;59504;54.806;9.640;2023-04-03T02:41:05;-0.80;70.60
71668;DHT22;59504;54.806;9.640;2023-04-03T02:43:26;-0.80;70.80
71668;DHT22;59504;54.806;9.640;2023-04-03T02:45:30;-0.80;71.00
71668;DHT22;59504;54.806;9.640;2023-04-03T02:47:30;-0.80;71.20
71668;DHT22;59504;54.806;9.640;2023-04-03T02:49:31;-0.70;71.20
71668;DHT22;59504;54.806;9.640;2023-04-03T02:51:32;-0.70;71.40
71668;DHT22;59504;54.806;9.640;2023-04-03T02:53:50;-0.70;71.40
71668;DHT22;59504;54.806;9.640;2023-04-03T02:56:11;-0.70;71.50
71668;DHT22;59504;54.806;9.640;2023-04-03T02:58:31;-0.70;71.60
71668;DHT22;59504;54.806;9.640;2023-04-03T03:00:52;-0.70;71.90
71668;DHT22;59504;54.806;9.640;2023-04-03T03:03:13;-0.70;71.00
71668;DHT22;59504;54.806;9.640;2023-04-03T03:05:35;-0.70;70.70
71668;DHT22;59504;54.806;9.640;2023-04-03T03:07:56;-0.80;70.50
71668;DHT22;59504;54.806;9.640;2023-04-03T03:10:17;-0.80;70.40
71668;DHT22;59504;54.806;9.640;2023-04-03T03:12:38;-0.80;70.30
71668;DHT22;59504;54.806;9.640;2023-04-03T03:14:58;-0.90;70.30
71668;DHT22;59504;54.806;9.640;2023-04-03T03:17:19;-0.90;70.50
71668;DHT22;59504;54.806;9.640;2023-04-03T03:19:21;-1.00;70.50
71668;DHT22;59504;54.806;9.640;2023-04-03T03:21:21;-1.00;70.60
71668;DHT22;59504;54.806;9.640;2023-04-03T03:23:24;-1.00;70.60
71668;DHT22;59504;54.806;9.640;2023-04-03T03:25:24;-1.10;70.30
71668;DHT22;59504;54.806;9.640;2023-04-03T03:27:25;-1.10;70.10
71668;DHT22;59504;54.806;9.640;2023-04-03T03:29:26;-1.10;70.00
71668;DHT22;59504;54.806;9.640;2023-04-03T03:31:30;-1.20;70.00
71668;DHT22;59504;54.806;9.640;2023-04-03T03:33:49;-1.20;70.10
71668;DHT22;59504;54.806;9.640;2023-04-03T03:36:10;-1.20;69.90
71668;DHT22;59504;54.806;9.640;2023-04-03T03:38:11;-1.30;70.00
71668;DHT22;59504;54.806;9.640;2023-04-03T03:40:32;-1.30;70.10
71668;DHT22;59504;54.806;9.640;2023-04-03T03:42:52;-1.40;70.30
71668;DHT22;59504;54.806;9.640;2023-04-03T03:45:13;-1.40;70.40
71668;DHT22;59504;54.806;9.640;2023-04-03T03:47:34;-1.40;70.50
71668;DHT22;59504;54.806;9.640;2023-04-03T03:49:54;-1.40;70.40
71668;DHT22;59504;54.806;9.640;2023-04-03T03:52:15;-1.40;70.60
71668;DHT22;59504;54.806;9.640;2023-04-03T03:54:36;-1.50;70.80
71668;DHT22;59504;54.806;9.640;2023-04-03T03:56:58;-1.50;70.90
71668;DHT22;59504;54.806;9.640;2023-04-03T03:59:18;-1.50;71.00
71668;DHT22;59504;54.806;9.640;2023-04-03T04:01:19;-1.50;71.00
71668;DHT22;59504;54.806;9.640;2023-04-03T04:03:19;-1.50;71.00
71668;DHT22;59504;54.806;9.640;2023-04-03T04:05:21;-1.50;71.10
71668;DHT22;59504;54.806;9.640;2023-04-03T04:07:22;-1.50;71.00
71668;DHT22;59504;54.806;9.640;2023-04-03T04:09:26;-1.50;71.00
71668;DHT22;59504;54.806;9.640;2023-04-03T04:11:32;-1.60;70.90
71668;DHT22;59504;54.806;9.640;2023-04-03T04:13:53;-1.60;70.90
71668;DHT22;59504;54.806;9.640;2023-04-03T04:16:14;-1.60;71.00
71668;DHT22;59504;54.806;9.640;2023-04-03T04:18:34;-1.60;71.00
71668;DHT22;59504;54.806;9.640;2023-04-03T04:20:55;-1.60;71.00
71668;DHT22;59504;54.806;9.640;2023-04-03T04:23:17;-1.60;70.90
71668;DHT22;59504;54.806;9.640;2023-04-03T04:25:38;-1.70;70.70
71668;DHT22;59504;54.806;9.640;2023-04-03T04:27:59;-1.70;70.80
71668;DHT22;59504;54.806;9.640;2023-04-03T04:30:19;-1.70;70.70
71668;DHT22;59504;54.806;9.640;2023-04-03T04:32:40;-1.70;70.70
71668;DHT22;59504;54.806;9.640;2023-04-03T04:35:01;-1.70;70.80
71668;DHT22;59504;54.806;9.640;2023-04-03T04:37:21;-1.70;71.00
71668;DHT22;59504;54.806;9.640;2023-04-03T04:39:42;-1.80;71.20
71668;DHT22;59504;54.806;9.640;2023-04-03T04:41:43;-1.80;71.40
71668;DHT22;59504;54.806;9.640;2023-04-03T04:43:43;-1.70;71.70
71668;DHT22;59504;54.806;9.640;2023-04-03T04:45:44;-1.70;71.90
71668;DHT22;59504;54.806;9.640;2023-04-03T04:47:45;-1.70;72.00
71668;DHT22;59504;54.806;9.640;2023-04-03T04:49:51;-1.70;72.30
71668;DHT22;59504;54.806;9.640;2023-04-03T04:52:12;-1.70;72.50
71668;DHT22;59504;54.806;9.640;2023-04-03T04:54:13;-1.70;72.70
71668;DHT22;59504;54.806;9.640;2023-04-03T04:56:33;-1.70;72.70
71668;DHT22;59504;54.806;9.640;2023-04-03T04:58:54;-1.70;72.80
71668;DHT22;59504;54.806;9.640;2023-04-03T05:01:10;-1.60;73.20
71668;DHT22;59504;54.806;9.640;2023-04-03T05:03:31;-1.50;73.60
71668;DHT22;59504;54.806;9.640;2023-04-03T05:05:52;-1.50;73.90
71668;DHT22;59504;54.806;9.640;2023-04-03T05:08:13;-1.50;74.30
71668;DHT22;59504;54.806;9.640;2023-04-03T05:10:33;-1.40;74.20
71668;DHT22;59504;54.806;9.640;2023-04-03T05:12:54;-1.40;74.30
71668;DHT22;59504;54.806;9.640;2023-04-03T05:15:15;-1.30;74.40
71668;DHT22;59504;54.806;9.640;2023-04-03T05:17:35;-1.30;74.40
71668;DHT22;59504;54.806;9.640;2023-04-03T05:19:56;-1.20;74.60
71668;DHT22;59504;54.806;9.640;2023-04-03T05:22:17;-1.20;74.90
71668;DHT22;59504;54.806;9.640;2023-04-03T05:24:37;-1.10;75.10
71668;DHT22;59504;54.806;9.640;2023-04-03T05:26:58;-1.00;75.20
71668;DHT22;59504;54.806;9.640;2023-04-03T05:29:19;-1.00;75.20
71668;DHT22;59504;54.806;9.640;2023-04-03T05:31:39;-0.90;75.10
71668;DHT22;59504;54.806;9.640;2023-04-03T05:34:00;-0.90;75.10
71668;DHT22;59504;54.806;9.640;2023-04-03T05:36:21;-0.80;75.30
71668;DHT22;59504;54.806;9.640;2023-04-03T05:38:42;-0.80;75.20
71668;DHT22;59504;54.806;9.640;2023-04-03T05:41:03;-0.70;75.30
71668;DHT22;59504;54.806;9.640;2023-04-03T05:43:03;-0.60;75.60
71668;DHT22;59504;54.806;9.640;2023-04-03T05:45:04;-0.60;75.80
71668;DHT22;59504;54.806;9.640;2023-04-03T05:47:06;-0.60;75.90
71668;DHT22;59504;54.806;9.640;2023-04-03T05:49:27;-0.50;76.10
71668;DHT22;59504;54.806;9.640;2023-04-03T05:51:35;-0.50;76.20
71668;DHT22;59504;54.806;9.640;2023-04-03T05:54:20;-0.40;76.40
71668;DHT22;59504;54.806;9.640;2023-04-03T05:56:43;-0.30;76.50
71668;DHT22;59504;54.806;9.640;2023-04-03T05:59:04;-0.20;76.60
71668;DHT22;59504;54.806;9.640;2023-04-03T06:01:24;-0.20;76.30
71668;DHT22;59504;54.806;9.640;2023-04-03T06:03:45;-0.10;76.10
71668;DHT22;59504;54.806;9.640;2023-04-03T06:06:06;0.00;76.00
71668;DHT22;59504;54.806;9.640;2023-04-03T06:08:28;0.00;76.20
71668;DHT22;59504;54.806;9.640;2023-04-03T06:10:49;0.10;76.10
71668;DHT22;59504;54.806;9.640;2023-04-03T06:13:11;0.10;76.40
71668;DHT22;59504;54.806;9.640;2023-04-03T06:15:31;0.20;76.80
71668;DHT22;59504;54.806;9.640;2023-04-03T06:17:52;0.30;77.30
71668;DHT22;59504;54.806;9.640;2023-04-03T06:20:13;0.30;77.50
71668;DHT22;59504;54.806;9.640;2023-04-03T06:22:14;0.50;77.70
71668;DHT22;59504;54.806;9.640;2023-04-03T06:24:16;0.50;77.80
71668;DHT22;59504;54.806;9.640;2023-04-03T06:26:17;0.60;78.00
71668;DHT22;59504;54.806;9.640;2023-04-03T06:28:18;0.70;78.10
71668;DHT22;59504;54.806;9.640;2023-04-03T06:30:19;0.80;78.30
71668;DHT22;59504;54.806;9.640;2023-04-03T06:32:20;0.80;78.30
71668;DHT22;59504;54.806;9.640;2023-04-03T06:34:21;1.00;78.40
71668;DHT22;59504;54.806;9.640;2023-04-03T06:36:22;1.00;78.70
71668;DHT22;59504;54.806;9.640;2023-04-03T06:38:42;1.20;78.70
71668;DHT22;59504;54.806;9.640;2023-04-03T06:41:03;1.30;78.80
71668;DHT22;59504;54.806;9.640;2023-04-03T06:43:24;1.40;78.90
71668;DHT22;59504;54.806;9.640;2023-04-03T06:45:45;1.50;78.80
71668;DHT22;59504;54.806;9.640;2023-04-03T06:48:06;1.60;78.90
71668;DHT22;59504;54.806;9.640;2023-04-03T06:50:26;1.70;78.70
71668;DHT22;59504;54.806;9.640;2023-04-03T06:52:47;1.80;78.60
71668;DHT22;59504;54.806;9.640;2023-04-03T06:54:48;1.90;79.30
71668;DHT22;59504;54.806;9.640;2023-04-03T06:56:48;2.00;79.10
71668;DHT22;59504;54.806;9.640;2023-04-03T06:58:50;2.10;79.10
71668;DHT22;59504;54.806;9.640;2023-04-03T07:00:51;2.30;79.20
71668;DHT22;59504;54.806;9.640;2023-04-03T07:02:52;2.30;78.90
71668;DHT22;59504;54.806;9.640;2023-04-03T07:04:53;2.40;79.60
71668;DHT22;59504;54.806;9.640;2023-04-03T07:06:55;2.40;79.70
71668;DHT22;59504;54.806;9.640;2023-04-03T07:09:16;2.50;79.50
71668;DHT22;59504;54.806;9.640;2023-04-03T07:11:37;2.60;79.10
71668;DHT22;59504;54.806;9.640;2023-04-03T07:13:57;2.70;78.90
71668;DHT22;59504;54.806;9.640;2023-04-03T07:16:18;2.80;78.60
71668;DHT22;59504;54.806;9.640;2023-04-03T07:18:39;2.90;78.20
71668;DHT22;59504;54.806;9.640;2023-04-03T07:21:00;2.90;77.90
71668;DHT22;59504;54.806;9.640;2023-04-03T07:23:21;3.00;77.70
71668;DHT22;59504;54.806;9.640;2023-04-03T07:25:49;3.10;77.40
71668;DHT22;59504;54.806;9.640;2023-04-03T07:27:50;3.20;77.10
71668;DHT22;59504;54.806;9.640;2023-04-03T07:29:51;3.20;76.90
71668;DHT22;59504;54.806;9.640;2023-04-03T07:31:51;3.30;76.90
71668;DHT22;59504;54.806;9.640;2023-04-03T07:34:12;3.40;76.70
71668;DHT22;59504;54.806;9.640;2023-04-03T07:36:33;3.50;76.40
71668;DHT22;59504;54.806;9.640;2023-04-03T07:38:41;3.50;75.80
71668;DHT22;59504;54.806;9.640;2023-04-03T07:41:03;3.60;75.30
71668;DHT22;59504;54.806;9.640;2023-04-03T07:43:24;3.60;75.00
71668;DHT22;59504;54.806;9.640;2023-04-03T07:45:30;3.70;74.70
71668;DHT22;59504;54.806;9.640;2023-04-03T07:47:51;3.80;74.30
71668;DHT22;59504;54.806;9.640;2023-04-03T07:50:12;3.80;73.90
71668;DHT22;59504;54.806;9.640;2023-04-03T07:52:32;3.90;73.80
71668;DHT22;59504;54.806;9.640;2023-04-03T07:54:53;4.00;73.70
71668;DHT22;59504;54.806;9.640;2023-04-03T07:57:14;4.00;73.20
71668;DHT22;59504;54.806;9.640;2023-04-03T07:59:34;4.10;73.00
71668;DHT22;59504;54.806;9.640;2023-04-03T08:01:55;4.10;72.70
71668;DHT22;59504;54.806;9.640;2023-04-03T08:04:18;4.20;72.50
71668;DHT22;59504;54.806;9.640;2023-04-03T08:06:39;4.30;72.20
71668;DHT22;59504;54.806;9.640;2023-04-03T08:09:00;4.30;71.90
71668;DHT22;59504;54.806;9.640;2023-04-03T08:11:20;4.30;71.70
71668;DHT22;59504;54.806;9.640;2023-04-03T08:13:41;4.40;71.80
71668;DHT22;59504;54.806;9.640;2023-04-03T08:16:17;4.40;72.60
71668;DHT22;59504;54.806;9.640;2023-04-03T08:18:38;4.50;71.70
71668;DHT22;59504;54.806;9.640;2023-04-03T08:20:59;4.60;71.70
71668;DHT22;59504;54.806;9.640;2023-04-03T08:23:20;4.60;72.30
71668;DHT22;59504;54.806;9.640;2023-04-03T08:25:41;4.70;71.60
71668;DHT22;59504;54.806;9.640;2023-04-03T08:28:02;4.70;71.60
71668;DHT22;59504;54.806;9.640;2023-04-03T08:30:23;4.80;71.40
71668;DHT22;59504;54.806;9.640;2023-04-03T08:32:43;4.80;71.20
71668;DHT22;59504;54.806;9.640;2023-04-03T08:35:05;4.80;70.70
71668;DHT22;59504;54.806;9.640;2023-04-03T08:37:26;4.90;70.70
71668;DHT22;59504;54.806;9.640;2023-04-03T08:39:46;4.90;70.30
71668;DHT22;59504;54.806;9.640;2023-04-03T08:42:20;4.90;70.40
71668;DHT22;59504;54.806;9.640;2023-04-03T08:44:53;5.00;70.70
71668;DHT22;59504;54.806;9.640;2023-04-03T08:47:39;5.00;71.00
71668;DHT22;59504;54.806;9.640;2023-04-03T08:50:05;5.00;70.10
71668;DHT22;59504;54.806;9.640;2023-04-03T08:52:36;5.00;70.00
71668;DHT22;59504;54.806;9.640;2023-04-03T08:55:00;5.00;70.00
71668;DHT22;59504;54.806;9.640;2023-04-03T08:57:43;5.10;70.10
71668;DHT22;59504;54.806;9.640;2023-04-03T09:02:52;5.10;69.80
71668;DHT22;59504;54.806;9.640;2023-04-03T09:05:19;5.10;69.60
71668;DHT22;59504;54.806;9.640;2023-04-03T09:07:45;5.20;69.70
71668;DHT22;59504;54.806;9.640;2023-04-03T09:10:12;5.20;70.00
71668;DHT22;59504;54.806;9.640;2023-04-03T09:12:42;5.20;70.00
71668;DHT22;59504;54.806;9.640;2023-04-03T09:15:22;5.20;70.30
71668;DHT22;59504;54.806;9.640;2023-04-03T09:18:15;5.20;69.80
71668;DHT22;59504;54.806;9.640;2023-04-03T09:26:53;5.30;70.40
71668;DHT22;59504;54.806;9.640;2023-04-03T09:28:55;5.40;70.70
71668;DHT22;59504;54.806;9.640;2023-04-03T09:31:19;5.40;70.70
71668;DHT22;59504;54.806;9.640;2023-04-03T09:33:39;5.50;70.40
71668;DHT22;59504;54.806;9.640;2023-04-03T09:35:58;5.60;69.50
71668;DHT22;59504;54.806;9.640;2023-04-03T09:38:20;5.60;67.90
71668;DHT22;59504;54.806;9.640;2023-04-03T09:45:04;5.60;67.60
71668;DHT22;59504;54.806;9.640;2023-04-03T09:47:26;5.60;67.90
71668;DHT22;59504;54.806;9.640;2023-04-03T09:49:47;5.60;68.90
71668;DHT22;59504;54.806;9.640;2023-04-03T09:52:22;5.60;68.10
71668;DHT22;59504;54.806;9.640;2023-04-03T09:54:41;5.70;68.40
71668;DHT22;59504;54.806;9.640;2023-04-03T09:57:08;5.80;68.00
71668;DHT22;59504;54.806;9.640;2023-04-03T09:59:34;5.80;68.10
71668;DHT22;59504;54.806;9.640;2023-04-03T10:01:59;6.00;68.20
71668;DHT22;59504;54.806;9.640;2023-04-03T10:04:19;5.90;66.70
71668;DHT22;59504;54.806;9.640;2023-04-03T10:06:43;5.90;66.10
71668;DHT22;59504;54.806;9.640;2023-04-03T10:11:37;6.00;64.10
71668;DHT22;59504;54.806;9.640;2023-04-03T10:13:58;5.90;62.40
71668;DHT22;59504;54.806;9.640;2023-04-03T10:16:23;5.80;61.90
71668;DHT22;59504;54.806;9.640;2023-04-03T10:21:51;5.80;61.00
71668;DHT22;59504;54.806;9.640;2023-04-03T10:24:21;5.80;61.40
71668;DHT22;59504;54.806;9.640;2023-04-03T10:29:43;5.80;61.40
71668;DHT22;59504;54.806;9.640;2023-04-03T10:35:01;5.80;63.00
71668;DHT22;59504;54.806;9.640;2023-04-03T10:53:54;6.10;59.30
71668;DHT22;59504;54.806;9.640;2023-04-03T11:01:29;6.20;59.30
71668;DHT22;59504;54.806;9.640;2023-04-03T11:03:53;6.20;59.10
71668;DHT22;59504;54.806;9.640;2023-04-03T11:06:15;6.20;58.60
71668;DHT22;59504;54.806;9.640;2023-04-03T11:08:41;6.30;59.20
71668;DHT22;59504;54.806;9.640;2023-04-03T11:11:19;6.20;58.40
71668;DHT22;59504;54.806;9.640;2023-04-03T11:13:45;6.30;58.20
71668;DHT22;59504;54.806;9.640;2023-04-03T11:16:06;6.30;57.70
71668;DHT22;59504;54.806;9.640;2023-04-03T11:19:03;6.20;56.60
71668;DHT22;59504;54.806;9.640;2023-04-03T11:21:26;6.20;56.20
71668;DHT22;59504;54.806;9.640;2023-04-03T11:23:49;6.20;57.20
71668;DHT22;59504;54.806;9.640;2023-04-03T11:26:19;6.20;57.80
71668;DHT22;59504;54.806;9.640;2023-04-03T11:28:39;6.20;56.30
71668;DHT22;59504;54.806;9.640;2023-04-03T11:33:49;6.10;57.10
71668;DHT22;59504;54.806;9.640;2023-04-03T11:36:22;6.10;57.20
71668;DHT22;59504;54.806;9.640;2023-04-03T11:38:45;6.20;56.80
71668;DHT22;59504;54.806;9.640;2023-04-03T11:41:07;6.20;55.80
71668;DHT22;59504;54.806;9.640;2023-04-03T11:43:29;6.10;53.90
71668;DHT22;59504;54.806;9.640;2023-04-03T11:45:52;6.20;53.60
71668;DHT22;59504;54.806;9.640;2023-04-03T11:50:47;6.20;53.30
71668;DHT22;59504;54.806;9.640;2023-04-03T12:05:45;6.20;51.40
71668;DHT22;59504;54.806;9.640;2023-04-03T12:13:32;6.20;49.10
71668;DHT22;59504;54.806;9.640;2023-04-03T12:15:52;6.20;50.20
71668;DHT22;59504;54.806;9.640;2023-04-03T12:18:40;6.20;48.60
71668;DHT22;59504;54.806;9.640;2023-04-03T12:21:01;6.30;47.90
71668;DHT22;59504;54.806;9.640;2023-04-03T12:23:32;6.30;48.40
71668;DHT22;59504;54.806;9.640;2023-04-03T12:26:00;6.30;47.60
71668;DHT22;59504;54.806;9.640;2023-04-03T12:28:20;6.20;48.50
71668;DHT22;59504;54.806;9.640;2023-04-03T12:30:41;6.30;49.70
71668;DHT22;59504;54.806;9.640;2023-04-03T12:33:17;6.30;50.10
71668;DHT22;59504;54.806;9.640;2023-04-03T12:36:05;6.40;49.50
71668;DHT22;59504;54.806;9.640;2023-04-03T12:38:45;6.30;50.20
71668;DHT22;59504;54.806;9.640;2023-04-03T12:41:17;6.30;47.50
71668;DHT22;59504;54.806;9.640;2023-04-03T12:44:01;6.30;48.10
71668;DHT22;59504;54.806;9.640;2023-04-03T12:46:28;6.30;48.50
71668;DHT22;59504;54.806;9.640;2023-04-03T12:48:58;6.40;48.40
71668;DHT22;59504;54.806;9.640;2023-04-03T12:51:26;6.30;47.10
71668;DHT22;59504;54.806;9.640;2023-04-03T12:53:49;6.20;47.60
71668;DHT22;59504;54.806;9.640;2023-04-03T12:58:41;6.30;49.50
71668;DHT22;59504;54.806;9.640;2023-04-03T13:01:10;6.30;49.30
71668;DHT22;59504;54.806;9.640;2023-04-03T13:03:30;6.40;49.30
71668;DHT22;59504;54.806;9.640;2023-04-03T13:06:42;6.40;49.90
71668;DHT22;59504;54.806;9.640;2023-04-03T13:08:59;6.40;49.80
71668;DHT22;59504;54.806;9.640;2023-04-03T13:11:24;6.30;50.70
71668;DHT22;59504;54.806;9.640;2023-04-03T13:14:04;6.50;50.20
71668;DHT22;59504;54.806;9.640;2023-04-03T13:16:27;6.40;49.80
71668;DHT22;59504;54.806;9.640;2023-04-03T13:18:51;6.50;49.70
71668;DHT22;59504;54.806;9.640;2023-04-03T13:21:18;6.40;49.40
71668;DHT22;59504;54.806;9.640;2023-04-03T13:23:40;6.40;49.70
71668;DHT22;59504;54.806;9.640;2023-04-03T13:26:01;6.50;50.40
71668;DHT22;59504;54.806;9.640;2023-04-03T13:28:23;6.50;50.80
71668;DHT22;59504;54.806;9.640;2023-04-03T13:31:07;6.60;50.50
71668;DHT22;59504;54.806;9.640;2023-04-03T13:33:32;6.60;50.60
71668;DHT22;59504;54.806;9.640;2023-04-03T13:36:31;6.70;50.50
71668;DHT22;59504;54.806;9.640;2023-04-03T13:38:59;6.60;49.00
71668;DHT22;59504;54.806;9.640;2023-04-03T13:41:40;6.70;49.10
71668;DHT22;59504;54.806;9.640;2023-04-03T13:44:33;6.70;48.50
71668;DHT22;59504;54.806;9.640;2023-04-03T13:46:59;6.70;48.70
71668;DHT22;59504;54.806;9.640;2023-04-03T13:51:45;6.70;48.80
71668;DHT22;59504;54.806;9.640;2023-04-03T13:54:38;6.80;49.00
71668;DHT22;59504;54.806;9.640;2023-04-03T13:56:59;6.70;47.40
71668;DHT22;59504;54.806;9.640;2023-04-03T13:59:29;6.80;48.90
71668;DHT22;59504;54.806;9.640;2023-04-03T14:04:24;6.80;47.70
71668;DHT22;59504;54.806;9.640;2023-04-03T14:06:45;6.80;47.90
71668;DHT22;59504;54.806;9.640;2023-04-03T14:09:04;6.80;49.00
71668;DHT22;59504;54.806;9.640;2023-04-03T14:11:28;6.80;48.80
71668;DHT22;59504;54.806;9.640;2023-04-03T14:13:48;6.80;49.30
71668;DHT22;59504;54.806;9.640;2023-04-03T14:16:11;6.70;47.50
71668;DHT22;59504;54.806;9.640;2023-04-03T14:18:30;6.70;47.70
71668;DHT22;59504;54.806;9.640;2023-04-03T14:20:50;6.70;47.80
71668;DHT22;59504;54.806;9.640;2023-04-03T14:23:09;6.70;47.50
71668;DHT22;59504;54.806;9.640;2023-04-03T14:25:29;6.60;46.70
71668;DHT22;59504;54.806;9.640;2023-04-03T14:27:50;6.60;47.00
71668;DHT22;59504;54.806;9.640;2023-04-03T14:30:19;6.50;47.20
71668;DHT22;59504;54.806;9.640;2023-04-03T14:32:39;6.60;47.30
71668;DHT22;59504;54.806;9.640;2023-04-03T14:34:59;6.50;47.80
71668;DHT22;59504;54.806;9.640;2023-04-03T14:37:25;6.60;48.30
71668;DHT22;59504;54.806;9.640;2023-04-03T14:39:46;6.50;46.00
71668;DHT22;59504;54.806;9.640;2023-04-03T14:42:09;6.50;47.20
71668;DHT22;59504;54.806;9.640;2023-04-03T14:44:30;6.60;47.60
71668;DHT22;59504;54.806;9.640;2023-04-03T14:46:49;6.50;47.10
71668;DHT22;59504;54.806;9.640;2023-04-03T14:49:22;6.50;46.60
71668;DHT22;59504;54.806;9.640;2023-04-03T14:51:42;6.50;47.00
71668;DHT22;59504;54.806;9.640;2023-04-03T14:54:01;6.50;46.80
71668;DHT22;59504;54.806;9.640;2023-04-03T14:56:25;6.50;46.40
71668;DHT22;59504;54.806;9.640;2023-04-03T14:58:46;6.50;47.20
71668;DHT22;59504;54.806;9.640;2023-04-03T15:01:10;6.50;47.10
71668;DHT22;59504;54.806;9.640;2023-04-03T15:03:30;6.50;46.90
71668;DHT22;59504;54.806;9.640;2023-04-03T15:05:49;6.50;46.80
71668;DHT22;59504;54.806;9.640;2023-04-03T15:10:36;6.50;46.40
71668;DHT22;59504;54.806;9.640;2023-04-03T15:12:55;6.50;45.50
71668;DHT22;59504;54.806;9.640;2023-04-03T15:15:16;6.50;46.20
71668;DHT22;59504;54.806;9.640;2023-04-03T15:17:36;6.50;45.80
71668;DHT22;59504;54.806;9.640;2023-04-03T15:19:55;6.40;45.70
71668;DHT22;59504;54.806;9.640;2023-04-03T15:22:17;6.40;46.10
71668;DHT22;59504;54.806;9.640;2023-04-03T15:24:36;6.50;46.00
71668;DHT22;59504;54.806;9.640;2023-04-03T15:26:55;6.50;46.50
71668;DHT22;59504;54.806;9.640;2023-04-03T15:29:14;6.50;47.20
71668;DHT22;59504;54.806;9.640;2023-04-03T15:31:34;6.50;46.00
71668;DHT22;59504;54.806;9.640;2023-04-03T15:33:53;6.40;45.40
71668;DHT22;59504;54.806;9.640;2023-04-03T15:36:12;6.40;45.10
71668;DHT22;59504;54.806;9.640;2023-04-03T15:38:32;6.50;45.30
71668;DHT22;59504;54.806;9.640;2023-04-03T15:40:51;6.30;45.00
71668;DHT22;59504;54.806;9.640;2023-04-03T15:43:10;6.30;45.30
71668;DHT22;59504;54.806;9.640;2023-04-03T15:45:30;6.30;45.50
71668;DHT22;59504;54.806;9.640;2023-04-03T15:47:50;6.30;45.20
71668;DHT22;59504;54.806;9.640;2023-04-03T15:50:10;6.30;46.00
71668;DHT22;59504;54.806;9.640;2023-04-03T15:52:29;6.20;45.50
71668;DHT22;59504;54.806;9.640;2023-04-03T15:54:48;6.20;46.10
71668;DHT22;59504;54.806;9.640;2023-04-03T15:57:07;6.20;45.80
71668;DHT22;59504;54.806;9.640;2023-04-03T15:59:26;6.20;47.10
71668;DHT22;59504;54.806;9.640;2023-04-03T16:01:48;6.20;46.40
71668;DHT22;59504;54.806;9.640;2023-04-03T16:04:09;6.20;46.60
71668;DHT22;59504;54.806;9.640;2023-04-03T16:06:28;6.20;45.90
71668;DHT22;59504;54.806;9.640;2023-04-03T16:08:52;6.10;45.20
71668;DHT22;59504;54.806;9.640;2023-04-03T16:11:15;6.10;45.90
71668;DHT22;59504;54.806;9.640;2023-04-03T16:13:35;6.10;45.80